createdAt,value
2017-07-12T00:00:38.008Z,18.18
2017-07-12T00:01:39.247Z,18.13
2017-07-12T00:02:40.488Z,18.21
2017-07-12T00:03:41.739Z,18.1
2017-07-12T00:04:43.001Z,18.12
2017-07-12T00:05:44.263Z,18.15
2017-07-12T00:06:45.508Z,18.13
2017-07-12T00:07:46.765Z,18.15
2017-07-12T00:08:48.014Z,18.09
2017-07-12T00:09:49.261Z,18.09
2017-07-12T00:10:50.512Z,18.07
2017-07-12T00:11:51.891Z,18.06
2017-07-12T00:12:53.191Z,18.04
2017-07-12T00:13:54.429Z,18.06
2017-07-12T00:14:55.672Z,18.1
2017-07-12T00:15:56.915Z,18.02
2017-07-12T00:16:58.270Z,18.04
2017-07-12T00:17:59.715Z,18.03
2017-07-12T00:19:01.011Z,17.95
2017-07-12T00:20:02.260Z,17.99
2017-07-12T00:21:03.503Z,18.02
2017-07-12T00:22:04.768Z,17.92
2017-07-12T00:23:06.015Z,18
2017-07-12T00:24:07.258Z,17.94
2017-07-12T00:25:08.533Z,17.97
2017-07-12T00:26:09.760Z,18.02
2017-07-12T00:27:11.009Z,17.94
2017-07-12T00:28:12.274Z,18
2017-07-12T00:29:13.543Z,17.97
2017-07-12T00:30:14.866Z,17.94
2017-07-12T00:31:16.075Z,17.92
2017-07-12T00:32:17.334Z,17.87
2017-07-12T00:33:18.643Z,17.87
2017-07-12T00:34:19.921Z,17.87
2017-07-12T00:35:21.143Z,17.85
2017-07-12T00:36:22.460Z,18
2017-07-12T00:37:23.727Z,17.94
2017-07-12T00:38:24.976Z,17.92
2017-07-12T00:39:26.287Z,17.88
2017-07-12T00:40:27.570Z,17.92
2017-07-12T00:41:28.827Z,17.92
2017-07-12T00:42:30.084Z,17.94
2017-07-12T00:43:31.355Z,17.85
2017-07-12T00:44:32.616Z,17.99
2017-07-12T00:45:33.902Z,17.95
2017-07-12T00:46:35.221Z,17.97
2017-07-12T00:47:36.379Z,17.92
2017-07-12T00:48:37.720Z,17.91
2017-07-12T00:49:38.890Z,17.89
2017-07-12T00:50:40.287Z,18.03
2017-07-12T00:51:41.537Z,17.97
2017-07-12T00:52:42.806Z,17.91
2017-07-12T00:53:44.128Z,17.97
2017-07-12T00:54:45.384Z,17.92
2017-07-12T00:55:46.624Z,17.99
2017-07-12T00:56:47.869Z,17.92
2017-07-12T00:57:49.110Z,17.97
2017-07-12T00:58:50.475Z,18.02
2017-07-12T00:59:51.731Z,18.03
2017-07-12T01:00:52.985Z,17.97
2017-07-12T01:01:54.278Z,17.94
2017-07-12T01:02:55.550Z,17.97
2017-07-12T01:03:56.795Z,18.02
2017-07-12T01:04:58.057Z,18
2017-07-12T01:05:59.317Z,17.99
2017-07-12T01:07:00.593Z,17.97
2017-07-12T01:08:01.831Z,17.89
2017-07-12T01:09:03.259Z,17.89
2017-07-12T01:10:04.410Z,17.94
2017-07-12T01:11:05.664Z,17.91
2017-07-12T01:12:06.912Z,17.89
2017-07-12T01:13:08.204Z,17.92
2017-07-12T01:14:09.575Z,17.85
2017-07-12T01:15:10.832Z,17.89
2017-07-12T01:16:12.096Z,17.95
2017-07-12T01:17:13.358Z,18.02
2017-07-12T01:18:14.594Z,17.91
2017-07-12T01:19:15.891Z,17.97
2017-07-12T01:20:17.133Z,17.95
2017-07-12T01:21:18.400Z,17.82
2017-07-12T01:22:19.657Z,17.84
2017-07-12T01:23:20.892Z,17.78
2017-07-12T01:24:22.177Z,17.67
2017-07-12T01:25:23.498Z,17.59
2017-07-12T01:26:24.702Z,17.59
2017-07-12T01:27:25.943Z,17.51
2017-07-12T01:28:27.193Z,17.51
2017-07-12T01:29:28.596Z,17.46
2017-07-12T01:30:29.887Z,17.46
2017-07-12T01:31:31.140Z,17.43
2017-07-12T01:32:32.391Z,17.41
2017-07-12T01:33:33.646Z,17.41
2017-07-12T01:34:34.892Z,17.29
2017-07-12T01:35:36.148Z,17.44
2017-07-12T01:36:37.442Z,17.38
2017-07-12T01:37:38.674Z,17.23
2017-07-12T01:38:39.925Z,17.3
2017-07-12T01:39:41.245Z,17.23
2017-07-12T01:40:42.423Z,17.28
2017-07-12T01:41:43.680Z,17.26
2017-07-12T01:42:44.939Z,17.23
2017-07-12T01:43:46.190Z,17.18
2017-07-12T01:44:47.580Z,17.26
2017-07-12T01:45:48.811Z,17.25
2017-07-12T01:46:50.148Z,17.23
2017-07-12T01:47:51.394Z,17.2
2017-07-12T01:48:52.641Z,17.13
2017-07-12T01:49:53.978Z,17.15
2017-07-12T01:50:55.224Z,17.14
2017-07-12T01:51:56.471Z,17.04
2017-07-12T01:52:57.722Z,17.14
2017-07-12T01:53:58.989Z,17.17
2017-07-12T01:55:00.302Z,17.17
2017-07-12T01:56:01.557Z,17.14
2017-07-12T01:57:02.808Z,17.17
2017-07-12T01:58:04.070Z,17.13
2017-07-12T01:59:05.336Z,17.14
2017-07-12T02:00:06.853Z,17.15
2017-07-12T02:01:08.136Z,17.11
2017-07-12T02:02:09.484Z,17.11
2017-07-12T02:03:10.697Z,17.1
2017-07-12T02:04:11.954Z,17.1
2017-07-12T02:05:13.203Z,17.03
2017-07-12T02:06:14.460Z,17.06
2017-07-12T02:07:15.746Z,16.99
2017-07-12T02:08:16.997Z,17.03
2017-07-12T02:09:18.254Z,17.04
2017-07-12T02:10:19.530Z,17.08
2017-07-12T02:11:20.761Z,17
2017-07-12T02:12:22.013Z,17.08
2017-07-12T02:13:23.270Z,17.07
2017-07-12T02:14:24.549Z,17.11
2017-07-12T02:15:25.862Z,17.08
2017-07-12T02:16:27.112Z,17.07
2017-07-12T02:17:28.329Z,17.1
2017-07-12T02:18:29.569Z,17.07
2017-07-12T02:19:30.835Z,17.11
2017-07-12T02:20:32.140Z,16.99
2017-07-12T02:21:33.485Z,17.03
2017-07-12T02:22:34.738Z,17.06
2017-07-12T02:23:35.985Z,17.03
2017-07-12T02:24:37.251Z,17.08
2017-07-12T02:25:38.469Z,17.07
2017-07-12T02:26:39.796Z,17.08
2017-07-12T02:27:41.045Z,17.03
2017-07-12T02:28:42.314Z,17.1
2017-07-12T02:29:43.559Z,16.99
2017-07-12T02:30:44.818Z,17.08
2017-07-12T02:31:46.099Z,16.99
2017-07-12T02:32:47.355Z,17.07
2017-07-12T02:33:48.681Z,17.06
2017-07-12T02:34:49.924Z,17.08
2017-07-12T02:35:51.193Z,17.08
2017-07-12T02:36:52.570Z,17.1
2017-07-12T02:37:53.812Z,16.98
2017-07-12T02:38:55.069Z,17
2017-07-12T02:39:56.347Z,16.99
2017-07-12T02:40:57.613Z,17.03
2017-07-12T02:41:58.847Z,17
2017-07-12T02:43:00.236Z,17.03
2017-07-12T02:44:01.486Z,16.96
2017-07-12T02:45:02.736Z,16.98
2017-07-12T02:46:04.004Z,16.96
2017-07-12T02:47:05.253Z,16.99
2017-07-12T02:48:06.503Z,16.93
2017-07-12T02:49:07.806Z,16.89
2017-07-12T02:50:09.064Z,16.92
2017-07-12T02:51:10.410Z,16.8
2017-07-12T02:52:11.659Z,16.85
2017-07-12T02:53:12.927Z,16.83
2017-07-12T02:54:14.173Z,16.8
2017-07-12T02:55:15.409Z,16.88
2017-07-12T02:56:16.708Z,16.8
2017-07-12T02:57:17.956Z,16.8
2017-07-12T02:58:19.198Z,16.8
2017-07-12T02:59:20.554Z,16.86
2017-07-12T03:00:21.793Z,16.81
2017-07-12T03:01:23.047Z,16.85
2017-07-12T03:02:24.328Z,16.81
2017-07-12T03:03:25.905Z,16.83
2017-07-12T03:04:27.035Z,16.7
2017-07-12T03:05:28.292Z,16.81
2017-07-12T03:06:29.533Z,16.73
2017-07-12T03:07:30.806Z,16.77
2017-07-12T03:08:32.082Z,16.73
2017-07-12T03:09:33.326Z,16.8
2017-07-12T03:10:34.575Z,16.81
2017-07-12T03:11:35.833Z,16.8
2017-07-12T03:12:37.063Z,16.85
2017-07-12T03:13:38.420Z,16.81
2017-07-12T03:14:39.659Z,16.8
2017-07-12T03:15:40.906Z,16.8
2017-07-12T03:16:42.149Z,16.85
2017-07-12T03:17:43.388Z,16.83
2017-07-12T03:18:44.625Z,16.85
2017-07-12T03:19:45.978Z,16.8
2017-07-12T03:20:47.225Z,16.81
2017-07-12T03:21:48.480Z,16.88
2017-07-12T03:22:49.795Z,16.83
2017-07-12T03:23:51.022Z,16.85
2017-07-12T03:24:52.281Z,16.83
2017-07-12T03:25:53.538Z,16.86
2017-07-12T03:26:54.798Z,16.88
2017-07-12T03:27:56.067Z,16.86
2017-07-12T03:28:57.312Z,16.86
2017-07-12T03:29:58.556Z,16.85
2017-07-12T03:30:59.796Z,16.77
2017-07-12T03:32:01.054Z,16.81
2017-07-12T03:33:02.375Z,16.81
2017-07-12T03:34:03.634Z,16.83
2017-07-12T03:35:04.885Z,16.85
2017-07-12T03:36:06.194Z,16.74
2017-07-12T03:37:07.440Z,16.74
2017-07-12T03:38:08.690Z,16.7
2017-07-12T03:39:09.952Z,16.77
2017-07-12T03:40:11.202Z,16.8
2017-07-12T03:41:12.447Z,16.67
2017-07-12T03:42:13.695Z,16.73
2017-07-12T03:43:14.939Z,16.74
2017-07-12T03:44:16.254Z,16.7
2017-07-12T03:45:17.494Z,16.7
2017-07-12T03:46:18.743Z,16.73
2017-07-12T03:47:19.980Z,16.7
2017-07-12T03:48:21.283Z,16.73
2017-07-12T03:49:22.521Z,16.71
2017-07-12T03:50:23.763Z,16.7
2017-07-12T03:51:25.028Z,16.7
2017-07-12T03:52:26.255Z,16.62
2017-07-12T03:53:27.496Z,16.6
2017-07-12T03:54:28.797Z,16.65
2017-07-12T03:55:30.050Z,16.62
2017-07-12T03:56:31.277Z,16.58
2017-07-12T03:57:32.535Z,16.74
2017-07-12T03:58:33.810Z,16.62
2017-07-12T03:59:35.068Z,16.7
2017-07-12T04:00:36.368Z,16.73
2017-07-12T04:01:37.592Z,16.7
2017-07-12T04:02:38.839Z,16.7
2017-07-12T04:03:40.201Z,16.78
2017-07-12T04:04:41.456Z,16.74
2017-07-12T04:05:42.706Z,16.7
2017-07-12T04:06:43.997Z,16.75
2017-07-12T04:07:45.258Z,16.77
2017-07-12T04:08:46.502Z,16.8
2017-07-12T04:09:47.744Z,16.8
2017-07-12T04:10:48.981Z,16.81
2017-07-12T04:11:50.264Z,16.85
2017-07-12T04:12:51.636Z,16.78
2017-07-12T04:13:52.856Z,16.88
2017-07-12T04:14:54.162Z,16.83
2017-07-12T04:15:55.409Z,16.86
2017-07-12T04:16:56.785Z,16.8
2017-07-12T04:17:58.067Z,16.8
2017-07-12T04:18:59.398Z,16.75
2017-07-12T04:20:00.533Z,16.86
2017-07-12T04:21:01.772Z,16.83
2017-07-12T04:22:03.021Z,16.8
2017-07-12T04:23:04.273Z,16.77
2017-07-12T04:24:05.640Z,16.83
2017-07-12T04:25:06.916Z,16.7
2017-07-12T04:26:08.189Z,16.74
2017-07-12T04:27:09.440Z,16.8
2017-07-12T04:28:10.699Z,16.77
2017-07-12T04:29:11.937Z,16.77
2017-07-12T04:30:13.206Z,16.85
2017-07-12T04:31:14.483Z,16.86
2017-07-12T04:32:15.729Z,16.81
2017-07-12T04:33:16.976Z,16.83
2017-07-12T04:34:18.289Z,16.88
2017-07-12T04:35:19.574Z,16.8
2017-07-12T04:36:20.808Z,16.85
2017-07-12T04:37:22.061Z,16.83
2017-07-12T04:38:23.349Z,16.9
2017-07-12T04:39:24.597Z,16.92
2017-07-12T04:40:25.850Z,16.85
2017-07-12T04:41:27.087Z,16.89
2017-07-12T04:42:28.349Z,16.8
2017-07-12T04:43:29.609Z,16.83
2017-07-12T04:44:30.842Z,16.85
2017-07-12T04:45:32.088Z,16.81
2017-07-12T04:46:33.342Z,16.85
2017-07-12T04:47:34.591Z,16.81
2017-07-12T04:48:35.844Z,16.81
2017-07-12T04:49:37.119Z,16.88
2017-07-12T04:50:38.384Z,16.88
2017-07-12T04:51:39.685Z,16.88
2017-07-12T04:52:40.909Z,16.9
2017-07-12T04:53:42.251Z,16.96
2017-07-12T04:54:43.585Z,17.03
2017-07-12T04:55:44.835Z,16.96
2017-07-12T04:56:46.095Z,17
2017-07-12T04:57:47.332Z,17.03
2017-07-12T04:58:48.585Z,17.03
2017-07-12T04:59:49.899Z,17.07
2017-07-12T05:00:51.161Z,16.98
2017-07-12T05:01:52.411Z,17.06
2017-07-12T05:02:53.660Z,17.03
2017-07-12T05:03:54.895Z,17.11
2017-07-12T05:04:56.180Z,17.14
2017-07-12T05:05:57.411Z,17.03
2017-07-12T05:06:58.694Z,17.04
2017-07-12T05:07:59.965Z,17.04
2017-07-12T05:09:01.202Z,17.14
2017-07-12T05:10:02.482Z,17.15
2017-07-12T05:11:03.758Z,17.08
2017-07-12T05:12:04.981Z,17.11
2017-07-12T05:13:06.337Z,17.22
2017-07-12T05:14:07.583Z,17.18
2017-07-12T05:15:08.845Z,17.28
2017-07-12T05:16:10.129Z,17.32
2017-07-12T05:17:11.360Z,17.25
2017-07-12T05:18:12.755Z,17.3
2017-07-12T05:19:14.170Z,17.3
2017-07-12T05:20:15.438Z,17.26
2017-07-12T05:21:16.690Z,17.32
2017-07-12T05:22:17.924Z,17.38
2017-07-12T05:23:19.180Z,17.4
2017-07-12T05:24:20.447Z,17.28
2017-07-12T05:25:21.705Z,17.32
2017-07-12T05:26:23.038Z,17.41
2017-07-12T05:27:24.275Z,17.51
2017-07-12T05:28:25.524Z,17.47
2017-07-12T05:29:26.793Z,17.59
2017-07-12T05:30:28.145Z,17.54
2017-07-12T05:31:29.386Z,17.57
2017-07-12T05:32:30.683Z,17.55
2017-07-12T05:33:31.929Z,17.63
2017-07-12T05:34:33.175Z,17.67
2017-07-12T05:35:34.439Z,17.66
2017-07-12T05:36:35.691Z,17.69
2017-07-12T05:37:36.986Z,17.7
2017-07-12T05:38:38.296Z,17.69
2017-07-12T05:39:39.553Z,17.67
2017-07-12T05:40:40.805Z,17.54
2017-07-12T05:41:42.117Z,17.55
2017-07-12T05:42:43.340Z,17.55
2017-07-12T05:43:44.717Z,17.46
2017-07-12T05:44:45.980Z,17.51
2017-07-12T05:45:47.261Z,17.44
2017-07-12T05:46:48.568Z,17.5
2017-07-12T05:47:49.903Z,17.51
2017-07-12T05:48:51.262Z,17.48
2017-07-12T05:49:52.509Z,17.46
2017-07-12T05:50:53.760Z,17.46
2017-07-12T05:51:55.022Z,17.47
2017-07-12T05:52:56.276Z,17.62
2017-07-12T05:53:57.531Z,17.54
2017-07-12T05:54:58.772Z,17.62
2017-07-12T05:56:00.035Z,17.57
2017-07-12T05:57:01.321Z,17.54
2017-07-12T05:58:02.572Z,17.55
2017-07-12T05:59:03.847Z,17.55
2017-07-12T06:00:05.070Z,17.63
2017-07-12T06:01:06.367Z,17.59
2017-07-12T06:02:07.618Z,17.63
2017-07-12T06:03:08.865Z,17.66
2017-07-12T06:04:10.108Z,17.74
2017-07-12T06:05:11.343Z,17.7
2017-07-12T06:06:12.756Z,17.73
2017-07-12T06:07:14.038Z,17.79
2017-07-12T06:08:15.261Z,17.76
2017-07-12T06:09:16.519Z,17.82
2017-07-12T06:10:17.774Z,17.79
2017-07-12T06:11:19.009Z,17.84
2017-07-12T06:12:20.262Z,17.85
2017-07-12T06:13:21.507Z,17.81
2017-07-12T06:14:22.824Z,17.82
2017-07-12T06:15:24.075Z,17.82
2017-07-12T06:16:25.345Z,17.94
2017-07-12T06:17:26.570Z,17.94
2017-07-12T06:18:27.830Z,17.79
2017-07-12T06:19:29.101Z,17.84
2017-07-12T06:20:30.452Z,17.88
2017-07-12T06:21:31.671Z,17.82
2017-07-12T06:22:32.942Z,17.97
2017-07-12T06:23:34.192Z,17.94
2017-07-12T06:24:35.448Z,17.87
2017-07-12T06:25:36.701Z,18.02
2017-07-12T06:26:38.028Z,18.1
2017-07-12T06:27:39.271Z,17.95
2017-07-12T06:28:40.527Z,18.07
2017-07-12T06:29:41.773Z,18.17
2017-07-12T06:30:43.034Z,18.18
2017-07-12T06:31:44.295Z,18.22
2017-07-12T06:32:45.632Z,18.28
2017-07-12T06:33:46.910Z,18.43
2017-07-12T06:34:48.168Z,18.52
2017-07-12T06:35:49.417Z,18.42
2017-07-12T06:36:50.663Z,18.47
2017-07-12T06:37:51.936Z,18.62
2017-07-12T06:38:53.287Z,18.59
2017-07-12T06:39:54.547Z,18.65
2017-07-12T06:40:55.795Z,18.67
2017-07-12T06:41:57.041Z,18.68
2017-07-12T06:42:58.315Z,18.67
2017-07-12T06:43:59.533Z,18.62
2017-07-12T06:45:00.830Z,18.64
2017-07-12T06:46:02.161Z,18.68
2017-07-12T06:47:03.414Z,18.7
2017-07-12T06:48:04.648Z,18.64
2017-07-12T06:49:05.899Z,18.65
2017-07-12T06:50:07.150Z,18.62
2017-07-12T06:51:08.404Z,18.72
2017-07-12T06:52:09.684Z,18.54
2017-07-12T06:53:10.932Z,18.67
2017-07-12T06:54:12.192Z,18.58
2017-07-12T06:55:13.411Z,18.65
2017-07-12T06:56:14.743Z,18.73
2017-07-12T06:57:15.991Z,18.68
2017-07-12T06:58:17.279Z,18.7
2017-07-12T06:59:18.651Z,18.7
2017-07-12T07:00:19.909Z,18.8
2017-07-12T07:01:21.125Z,18.79
2017-07-12T07:02:22.373Z,18.79
2017-07-12T07:03:23.638Z,18.95
2017-07-12T07:04:24.891Z,18.76
2017-07-12T07:05:26.155Z,18.79
2017-07-12T07:06:27.446Z,18.74
2017-07-12T07:07:28.693Z,18.84
2017-07-12T07:08:29.949Z,18.84
2017-07-12T07:09:31.212Z,18.82
2017-07-12T07:10:32.467Z,18.83
2017-07-12T07:11:33.750Z,18.72
2017-07-12T07:12:34.965Z,18.59
2017-07-12T07:13:36.207Z,18.61
2017-07-12T07:14:37.535Z,18.54
2017-07-12T07:15:38.764Z,18.54
2017-07-12T07:16:40.085Z,18.5
2017-07-12T07:17:41.320Z,18.47
2017-07-12T07:18:42.573Z,18.47
2017-07-12T07:19:43.825Z,18.4
2017-07-12T07:20:45.067Z,18.34
2017-07-12T07:21:46.330Z,18.42
2017-07-12T07:22:47.689Z,18.31
2017-07-12T07:23:48.933Z,18.29
2017-07-12T07:24:50.185Z,18.29
2017-07-12T07:25:51.457Z,18.33
2017-07-12T07:26:52.685Z,18.31
2017-07-12T07:27:54.028Z,18.27
2017-07-12T07:28:55.273Z,18.27
2017-07-12T07:29:56.668Z,18.34
2017-07-12T07:30:57.897Z,18.25
2017-07-12T07:31:59.142Z,18.27
2017-07-12T07:33:00.392Z,18.33
2017-07-12T07:34:01.680Z,18.28
2017-07-12T07:35:02.932Z,18.27
2017-07-12T07:36:04.256Z,18.15
2017-07-12T07:37:05.523Z,18.15
2017-07-12T07:38:06.746Z,18.07
2017-07-12T07:39:07.995Z,18.04
2017-07-12T07:40:09.242Z,17.99
2017-07-12T07:41:10.561Z,18
2017-07-12T07:42:11.870Z,17.91
2017-07-12T07:43:13.122Z,17.92
2017-07-12T07:44:14.457Z,17.88
2017-07-12T07:45:15.718Z,17.94
2017-07-12T07:46:16.949Z,17.84
2017-07-12T07:47:18.222Z,17.89
2017-07-12T07:48:19.792Z,17.91
2017-07-12T07:49:20.919Z,17.95
2017-07-12T07:50:22.203Z,17.97
2017-07-12T07:51:23.446Z,17.92
2017-07-12T07:52:24.695Z,17.94
2017-07-12T07:53:26.004Z,18
2017-07-12T07:54:27.279Z,18.06
2017-07-12T07:55:28.516Z,18.09
2017-07-12T07:56:29.747Z,18.06
2017-07-12T07:57:31.056Z,18.07
2017-07-12T07:58:32.418Z,18.06
2017-07-12T07:59:33.657Z,18.09
2017-07-12T08:00:34.910Z,18.09
2017-07-12T08:01:36.153Z,18.1
2017-07-12T08:02:37.434Z,18.17
2017-07-12T08:03:38.672Z,18.15
2017-07-12T08:04:39.942Z,18.17
2017-07-12T08:05:41.161Z,18.18
2017-07-12T08:06:42.401Z,18.17
2017-07-12T08:07:43.676Z,18.15
2017-07-12T08:08:44.916Z,18.15
2017-07-12T08:09:46.185Z,18.15
2017-07-12T08:10:47.428Z,18.25
2017-07-12T08:11:48.716Z,18.19
2017-07-12T08:12:50.005Z,18.18
2017-07-12T08:13:51.262Z,18.17
2017-07-12T08:14:52.520Z,18.13
2017-07-12T08:15:53.771Z,18.12
2017-07-12T08:16:55.140Z,18.06
2017-07-12T08:17:56.443Z,18.07
2017-07-12T08:18:57.757Z,18.12
2017-07-12T08:19:59.015Z,18.15
2017-07-12T08:21:00.300Z,18.13
2017-07-12T08:22:01.552Z,18.19
2017-07-12T08:23:02.787Z,18.24
2017-07-12T08:24:04.083Z,18.25
2017-07-12T08:25:05.506Z,18.31
2017-07-12T08:26:06.755Z,18.39
2017-07-12T08:27:08.000Z,18.37
2017-07-12T08:28:09.245Z,18.42
2017-07-12T08:29:10.489Z,18.46
2017-07-12T08:30:11.841Z,18.52
2017-07-12T08:31:13.004Z,18.61
2017-07-12T08:32:14.257Z,18.68
2017-07-12T08:33:15.508Z,18.61
2017-07-12T08:34:16.767Z,18.52
2017-07-12T08:35:18.004Z,18.57
2017-07-12T08:36:19.255Z,18.7
2017-07-12T08:37:20.502Z,18.67
2017-07-12T08:38:21.745Z,18.72
2017-07-12T08:39:22.985Z,18.8
2017-07-12T08:40:24.266Z,18.99
2017-07-12T08:41:25.526Z,19.11
2017-07-12T08:42:26.876Z,19.38
2017-07-12T08:43:28.151Z,19.42
2017-07-12T08:44:29.470Z,19.65
2017-07-12T08:45:30.657Z,19.86
2017-07-12T08:46:31.906Z,19.98
2017-07-12T08:47:33.149Z,20.18
2017-07-12T08:48:34.394Z,20.28
2017-07-12T08:49:35.659Z,20.27
2017-07-12T08:50:36.899Z,20.24
2017-07-12T08:51:38.143Z,20.2
2017-07-12T08:52:39.388Z,20.2
2017-07-12T08:53:40.659Z,20.21
2017-07-12T08:54:41.900Z,20.16
2017-07-12T08:55:43.211Z,19.94
2017-07-12T08:56:44.402Z,20
2017-07-12T08:57:45.654Z,19.93
2017-07-12T08:58:46.908Z,19.83
2017-07-12T08:59:48.157Z,19.55
2017-07-12T09:00:49.440Z,19.51
2017-07-12T09:01:50.710Z,19.32
2017-07-12T09:02:51.952Z,19.31
2017-07-12T09:03:53.194Z,19.29
2017-07-12T09:04:54.466Z,19.25
2017-07-12T09:05:55.724Z,19.28
2017-07-12T09:06:57.005Z,19.2
2017-07-12T09:07:58.246Z,19.25
2017-07-12T09:08:59.499Z,19.18
2017-07-12T09:10:00.748Z,19.17
2017-07-12T09:11:02.019Z,19.13
2017-07-12T09:12:03.264Z,19.18
2017-07-12T09:13:04.633Z,19.14
2017-07-12T09:14:05.951Z,19.15
2017-07-12T09:15:07.191Z,19.02
2017-07-12T09:16:08.462Z,18.98
2017-07-12T09:17:09.741Z,19.02
2017-07-12T09:18:10.952Z,19.01
2017-07-12T09:19:12.302Z,19.08
2017-07-12T09:20:13.534Z,18.9
2017-07-12T09:21:14.785Z,19.02
2017-07-12T09:22:16.035Z,18.9
2017-07-12T09:23:17.290Z,18.99
2017-07-12T09:33:30.425Z,18.62
2017-07-12T09:34:31.673Z,18.55
2017-07-12T09:35:32.926Z,18.61
2017-07-12T09:36:34.401Z,18.65
2017-07-12T09:37:35.629Z,18.65
2017-07-12T09:38:36.901Z,18.65
2017-07-12T09:39:38.167Z,18.67
2017-07-12T09:40:39.400Z,18.67
2017-07-12T09:41:40.637Z,18.65
2017-07-12T09:42:41.897Z,18.65
2017-07-12T09:43:43.196Z,18.7
2017-07-12T09:44:44.457Z,18.61
2017-07-12T09:45:45.700Z,18.57
2017-07-12T09:46:46.972Z,18.61
2017-07-12T09:47:48.192Z,18.55
2017-07-12T09:48:49.429Z,18.44
2017-07-12T09:49:50.698Z,18.44
2017-07-12T09:50:51.971Z,18.47
2017-07-12T09:51:53.221Z,18.43
2017-07-12T09:52:54.471Z,18.43
2017-07-12T09:53:55.717Z,18.4
2017-07-12T09:54:56.971Z,18.34
2017-07-12T09:55:58.228Z,18.34
2017-07-12T09:56:59.465Z,18.37
2017-07-12T09:58:00.716Z,18.46
2017-07-12T09:59:01.969Z,18.37
2017-07-12T10:00:03.279Z,18.34
2017-07-12T10:01:04.557Z,18.42
2017-07-12T10:02:05.826Z,18.58
2017-07-12T10:03:07.149Z,18.57
2017-07-12T10:04:08.399Z,18.65
2017-07-12T10:05:09.649Z,18.7
2017-07-12T10:06:10.897Z,18.65
2017-07-12T10:07:12.155Z,18.82
2017-07-12T10:08:13.460Z,18.95
2017-07-12T10:09:14.715Z,18.99
2017-07-12T10:10:15.965Z,19.13
2017-07-12T10:11:17.221Z,19.08
2017-07-12T10:12:18.550Z,19.21
2017-07-12T10:13:19.797Z,19.28
2017-07-12T10:14:21.045Z,19.29
2017-07-12T10:15:22.317Z,19.38
2017-07-12T10:16:23.570Z,19.48
2017-07-12T10:17:24.815Z,19.55
2017-07-12T10:18:26.065Z,19.46
2017-07-12T10:19:27.306Z,19.51
2017-07-12T10:20:28.612Z,19.53
2017-07-12T10:21:29.892Z,19.47
2017-07-12T10:22:31.135Z,19.36
2017-07-12T10:23:32.392Z,19.29
2017-07-12T10:24:33.643Z,19.14
2017-07-12T10:25:34.896Z,18.95
2017-07-12T10:26:36.147Z,18.77
2017-07-12T10:27:37.430Z,18.7
2017-07-12T10:28:38.683Z,18.62
2017-07-12T10:29:39.963Z,18.52
2017-07-12T10:30:41.211Z,18.37
2017-07-12T10:31:42.466Z,18.36
2017-07-12T10:32:43.722Z,18.27
2017-07-12T10:33:44.992Z,18.19
2017-07-12T10:34:46.279Z,18.13
2017-07-12T10:35:47.544Z,17.94
2017-07-12T10:36:48.789Z,17.82
2017-07-12T10:37:50.036Z,17.85
2017-07-12T10:38:51.297Z,17.87
2017-07-12T10:39:52.516Z,17.73
2017-07-12T10:40:53.775Z,17.7
2017-07-12T10:41:55.063Z,17.55
2017-07-12T10:42:56.257Z,17.57
2017-07-12T10:43:57.516Z,17.55
2017-07-12T10:44:58.771Z,17.47
2017-07-12T10:46:00.049Z,17.43
2017-07-12T10:47:01.303Z,17.38
2017-07-12T10:48:02.551Z,17.29
2017-07-12T10:49:03.807Z,17.28
2017-07-12T10:50:05.041Z,17.14
2017-07-12T10:51:06.299Z,16.98
2017-07-12T10:52:07.552Z,17.06
2017-07-12T10:53:08.907Z,16.99
2017-07-12T10:54:10.167Z,16.99
2017-07-12T10:55:11.412Z,16.95
2017-07-12T10:56:12.663Z,16.95
2017-07-12T10:57:13.924Z,16.99
2017-07-12T10:58:15.195Z,16.95
2017-07-12T10:59:16.474Z,16.96
2017-07-12T11:00:17.793Z,16.95
2017-07-12T11:01:18.964Z,16.99
2017-07-12T11:02:20.221Z,17.03
2017-07-12T11:03:21.458Z,16.95
2017-07-12T11:04:22.723Z,17.03
2017-07-12T11:05:23.974Z,17.11
2017-07-12T11:06:25.205Z,17.06
2017-07-12T11:07:26.466Z,17.1
2017-07-12T11:08:27.699Z,17.07
2017-07-12T11:09:28.934Z,17.14
2017-07-12T11:10:30.193Z,17.28
2017-07-12T11:11:31.471Z,17.26
2017-07-12T11:12:32.733Z,17.44
2017-07-12T11:13:34.000Z,17.29
2017-07-12T11:14:35.255Z,17.32
2017-07-12T11:15:36.516Z,17.33
2017-07-12T11:16:37.773Z,17.32
2017-07-12T11:17:39.039Z,17.29
2017-07-12T11:18:40.284Z,17.17
2017-07-12T11:19:41.530Z,17.1
2017-07-12T11:20:42.808Z,17.1
2017-07-12T11:21:44.071Z,17.06
2017-07-12T11:22:45.331Z,16.98
2017-07-12T11:23:46.584Z,16.89
2017-07-12T11:24:47.950Z,16.74
2017-07-12T11:25:49.202Z,16.78
2017-07-12T11:26:50.505Z,16.85
2017-07-12T11:27:51.753Z,16.8
2017-07-12T11:28:53.029Z,16.74
2017-07-12T11:29:54.433Z,16.65
2017-07-12T11:30:55.659Z,16.58
2017-07-12T11:31:56.894Z,16.53
2017-07-12T11:32:58.156Z,16.56
2017-07-12T11:33:59.400Z,16.56
2017-07-12T11:35:00.690Z,16.52
2017-07-12T11:36:01.950Z,16.53
2017-07-12T11:37:03.447Z,16.48
2017-07-12T11:38:04.708Z,16.49
2017-07-12T11:39:05.924Z,16.38
2017-07-12T11:40:07.175Z,16.4
2017-07-12T11:41:08.522Z,16.41
2017-07-12T11:42:09.768Z,16.42
2017-07-12T11:43:11.004Z,16.37
2017-07-12T11:44:12.259Z,16.34
2017-07-12T11:45:13.505Z,16.41
2017-07-12T11:46:14.943Z,16.25
2017-07-12T11:47:16.374Z,16.23
2017-07-12T11:48:17.505Z,16.26
2017-07-12T11:49:18.732Z,16.23
2017-07-12T11:50:19.971Z,16.3
2017-07-12T11:51:21.216Z,16.41
2017-07-12T11:52:22.475Z,16.45
2017-07-12T11:53:23.733Z,16.41
2017-07-12T11:54:24.993Z,16.45
2017-07-12T11:55:26.283Z,16.49
2017-07-12T11:56:27.526Z,16.45
2017-07-12T11:57:28.758Z,16.53
2017-07-12T11:58:30.021Z,16.49
2017-07-12T11:59:31.281Z,16.58
2017-07-12T12:00:32.661Z,16.53
2017-07-12T12:01:33.915Z,16.53
2017-07-12T12:02:35.157Z,16.48
2017-07-12T12:03:36.427Z,16.48
2017-07-12T12:04:37.704Z,16.35
2017-07-12T12:05:38.929Z,16.44
2017-07-12T12:06:40.340Z,16.5
2017-07-12T12:07:41.819Z,16.53
2017-07-12T12:08:42.930Z,16.48
2017-07-12T12:09:44.203Z,16.56
2017-07-12T12:10:45.457Z,16.62
2017-07-12T12:11:46.797Z,16.67
2017-07-12T12:12:48.236Z,16.78
2017-07-12T12:13:49.457Z,16.88
2017-07-12T12:14:50.741Z,16.99
2017-07-12T12:15:51.955Z,17.08
2017-07-12T12:16:53.226Z,17.06
2017-07-12T12:17:54.708Z,16.93
2017-07-12T12:18:55.964Z,17.03
2017-07-12T12:19:57.221Z,17.03
2017-07-12T12:20:58.476Z,17.03
2017-07-12T12:21:59.711Z,17.06
2017-07-12T12:23:01.053Z,17.03
2017-07-12T12:24:02.420Z,16.96
2017-07-12T12:25:03.786Z,16.95
2017-07-12T12:26:04.918Z,16.9
2017-07-12T12:27:06.168Z,16.88
2017-07-12T12:28:07.460Z,16.85
2017-07-12T12:29:08.704Z,16.86
2017-07-12T12:30:10.055Z,16.83
2017-07-12T12:31:11.293Z,16.83
2017-07-12T12:32:12.585Z,16.71
2017-07-12T12:33:13.854Z,16.73
2017-07-12T12:34:15.110Z,16.58
2017-07-12T12:35:16.400Z,16.62
2017-07-12T12:36:17.631Z,16.59
2017-07-12T12:37:18.918Z,16.55
2017-07-12T12:38:20.146Z,16.52
2017-07-12T12:39:21.404Z,16.52
2017-07-12T12:40:22.639Z,16.59
2017-07-12T12:41:23.917Z,16.59
2017-07-12T12:42:25.184Z,16.5
2017-07-12T12:43:26.434Z,16.45
2017-07-12T12:44:27.725Z,16.52
2017-07-12T12:45:28.974Z,16.41
2017-07-12T12:46:30.239Z,16.35
2017-07-12T12:47:31.476Z,16.48
2017-07-12T12:48:32.721Z,16.48
2017-07-12T12:49:33.988Z,16.35
2017-07-12T12:50:35.235Z,16.5
2017-07-12T12:51:36.478Z,16.48
2017-07-12T12:52:37.719Z,16.49
2017-07-12T12:53:39.007Z,16.48
2017-07-12T12:54:40.202Z,16.49
2017-07-12T12:55:41.452Z,16.52
2017-07-12T12:56:42.768Z,16.38
2017-07-12T12:57:43.993Z,16.38
2017-07-12T12:58:45.245Z,16.37
2017-07-12T12:59:46.506Z,16.44
2017-07-12T13:00:47.781Z,16.49
2017-07-12T13:01:49.018Z,16.5
2017-07-12T13:02:50.440Z,16.5
2017-07-12T13:03:51.689Z,16.44
2017-07-12T13:04:52.939Z,16.49
2017-07-12T13:05:54.167Z,16.49
2017-07-12T13:06:55.416Z,16.52
2017-07-12T13:07:56.668Z,16.45
2017-07-12T13:08:57.924Z,16.5
2017-07-12T13:09:59.149Z,16.44
2017-07-12T13:11:00.366Z,16.5
2017-07-12T13:12:01.613Z,16.56
2017-07-12T13:13:02.875Z,16.45
2017-07-12T13:14:04.203Z,16.48
2017-07-12T13:15:05.461Z,16.45
2017-07-12T13:16:06.716Z,16.33
2017-07-12T13:17:07.980Z,16.44
2017-07-12T13:18:09.215Z,16.4
2017-07-12T13:19:10.502Z,16.34
2017-07-12T13:20:11.742Z,16.41
2017-07-12T13:21:13.117Z,16.45
2017-07-12T13:22:14.349Z,16.5